Terminal Aerodrome Forecast
Issued by NWS Blacksburg, VA

Home | Current Version | Previous Version | Text Only | Print | Product List | Glossary On
Versions: 1 2 3 4 5 6 7 8 9 10 11 12 13 14 15 16 17 18 19 20 21 22 23 24 25 26 27 28 29 30 31 32 33 34 35 36 37 38 39 40 41 42 43 44 45 46
200
FTUS41 KRNK 230244 AAC
TAFLYH
TAF AMD
KLYH 230244Z 2303/2324 06008KT 2SM BR OVC004
      TEMPO 2303/2306 1SM RA BR OVC002
     FM230600 06013KT 3SM RA BR OVC003
     FM231000 09010KT 6SM -SHRA OVC003
     FM231200 10008KT 1SM -SHRA BR OVC008
     FM231500 13006KT 3SM -RA BKN008
     FM231900 13006KT P6SM BKN015=

USA.gov is the U.S. government's official web portal to all federal, state and local government web resources and services.